Chesapeake — WDD3041 — position and weather

sailwx.info

Track history (hours):
 
Tides and Currents Weather Stations Pressure Air Temp Water Temp Dewpoint Dewpoint Depression Visibility Wind Speed Wind Dir Waves Ship Positions

Chesapeake

Owner: Vane Line Bunkering, Baltimore, MD. More information available from US FCC via Universal Licensing System and Coast Guard Vessel Documentation Center.

Last reported at 2014-Oct-25 08:33 UTC. Time now 2014-Oct-25 08:44 UTC.
Position N 39°48' W 075°24'.

Length 34 m; draft 16 m.

Type: Tug. MMSI: 367123040.

Date/timePositionNaut miles runAvg speedWind from/ knotsBaromVisibWave heightAir tempDewpointWater temp
2014-Oct-25 08:33N 39°48' W 075°24'  
2014-Oct-20 16:09N 39°48' W 075°25'7 0.3
2014-Oct-19 18:30N 39°43' W 075°30'7 7.7
2014-Oct-19 17:33N 39°36' W 075°34'7 7.3
2014-Oct-19 16:33N 39°29' W 075°34'9 8.0
2014-Oct-19 15:25N 39°22' W 075°27'65 5.5
2014-Oct-19 03:33N 39°38' W 074°05'9 9.4
2014-Oct-19 02:33N 39°46' W 073°59'53 2.5
2014-Oct-18 05:21N 40°39' W 074°09'5 6.3
2014-Oct-18 04:33N 40°40' W 074°03'0 0.1
2014-Oct-18 03:33N 40°40' W 074°03'0 0.0
2014-Oct-18 02:33N 40°40' W 074°03'0 0.0
2014-Oct-18 01:34N 40°40' W 074°03'0 0.0
2014-Oct-18 00:33N 40°40' W 074°03'0 0.1
2014-Oct-17 23:34N 40°40' W 074°03'0 0.2
2014-Oct-17 22:34N 40°40' W 074°03'0 0.0
2014-Oct-17 21:34N 40°40' W 074°03'0 0.0
2014-Oct-17 20:34N 40°40' W 074°03'0 0.0
2014-Oct-17 19:34N 40°40' W 074°03'0 0.0
2014-Oct-17 18:34N 40°40' W 074°03'0 0.2
2014-Oct-17 17:34N 40°40' W 074°03'0 0.1
2014-Oct-17 16:33N 40°40' W 074°03'0 0.0
2014-Oct-17 15:34N 40°40' W 074°03'3 2.6
2014-Oct-17 14:33N 40°37' W 074°03'5 4.7
2014-Oct-17 13:32N 40°32' W 074°01'40 6.6
2014-Oct-17 07:27N 39°52' W 073°57'7 7.9
2014-Oct-17 06:33N 39°45' W 073°59'8 7.9
2014-Oct-17 05:33N 39°38' W 074°03'8 7.8
2014-Oct-17 04:33N 39°31' W 074°07'  
Track history (hours):
 
Tides and Currents Weather Stations Pressure Air Temp Water Temp Dewpoint Dewpoint Depression Visibility Wind Speed Wind Dir Waves Ship Positions

Chesapeake

Owner: Vane Line Bunkering, Baltimore, MD. More information available from US FCC via Universal Licensing System and Coast Guard Vessel Documentation Center.

Last reported at 2014-Oct-25 08:33 UTC. Time now 2014-Oct-25 08:44 UTC.
Position N 39°48' W 075°24'.

Length 34 m; draft 16 m.

Type: Tug. MMSI: 367123040.

Date/timePositionNaut miles runAvg speedWind from/ knotsBaromVisibWave heightAir tempDewpointWater temp
2014-Oct-25 08:33N 39°48' W 075°24'  
2014-Oct-20 16:09N 39°48' W 075°25'7 0.3
2014-Oct-19 18:30N 39°43' W 075°30'7 7.7
2014-Oct-19 17:33N 39°36' W 075°34'7 7.3
2014-Oct-19 16:33N 39°29' W 075°34'9 8.0
2014-Oct-19 15:25N 39°22' W 075°27'65 5.5
2014-Oct-19 03:33N 39°38' W 074°05'9 9.4
2014-Oct-19 02:33N 39°46' W 073°59'53 2.5
2014-Oct-18 05:21N 40°39' W 074°09'5 6.3
2014-Oct-18 04:33N 40°40' W 074°03'0 0.1
2014-Oct-18 03:33N 40°40' W 074°03'0 0.0
2014-Oct-18 02:33N 40°40' W 074°03'0 0.0
2014-Oct-18 01:34N 40°40' W 074°03'0 0.0
2014-Oct-18 00:33N 40°40' W 074°03'0 0.1
2014-Oct-17 23:34N 40°40' W 074°03'0 0.2
2014-Oct-17 22:34N 40°40' W 074°03'0 0.0
2014-Oct-17 21:34N 40°40' W 074°03'0 0.0
2014-Oct-17 20:34N 40°40' W 074°03'0 0.0
2014-Oct-17 19:34N 40°40' W 074°03'0 0.0
2014-Oct-17 18:34N 40°40' W 074°03'0 0.2
2014-Oct-17 17:34N 40°40' W 074°03'0 0.1
2014-Oct-17 16:33N 40°40' W 074°03'0 0.0
2014-Oct-17 15:34N 40°40' W 074°03'3 2.6
2014-Oct-17 14:33N 40°37' W 074°03'5 4.7
2014-Oct-17 13:32N 40°32' W 074°01'40 6.6
2014-Oct-17 07:27N 39°52' W 073°57'7 7.9
2014-Oct-17 06:33N 39°45' W 073°59'8 7.9
2014-Oct-17 05:33N 39°38' W 074°03'8 7.8
2014-Oct-17 04:33N 39°31' W 074°07'  

Dump ship's entire track history